createdAt,value
2022-12-19T00:01:29.542Z,29.30
2022-12-19T00:04:00.767Z,31.57
2022-12-19T00:06:28.685Z,31.20
2022-12-19T00:08:56.418Z,30.03
2022-12-19T00:11:24.011Z,30.73
2022-12-19T00:13:50.696Z,30.03
2022-12-19T00:16:19.723Z,29.93
2022-12-19T00:18:47.748Z,32.27
2022-12-19T00:21:20.271Z,31.60
2022-12-19T00:23:47.575Z,29.83
2022-12-19T00:26:16.939Z,29.23
2022-12-19T00:28:45.938Z,33.53
2022-12-19T00:31:12.905Z,29.77
2022-12-19T00:33:43.518Z,31.70
2022-12-19T00:36:13.094Z,30.90
2022-12-19T00:38:39.742Z,31.20
2022-12-19T00:41:11.390Z,30.50
2022-12-19T00:43:38.470Z,31.00
2022-12-19T00:46:07.637Z,30.60
2022-12-19T00:48:34.942Z,28.00
2022-12-19T00:51:02.983Z,28.33
2022-12-19T00:53:29.859Z,31.80
2022-12-19T00:55:56.515Z,29.47
2022-12-19T00:58:23.543Z,32.37
2022-12-19T01:00:50.000Z,29.80
2022-12-19T01:03:16.435Z,32.00
2022-12-19T01:05:42.848Z,29.87
2022-12-19T01:08:10.071Z,33.87
2022-12-19T01:10:36.438Z,33.47
2022-12-19T01:13:02.887Z,32.50
2022-12-19T01:15:29.245Z,31.93
2022-12-19T01:17:55.581Z,32.20
2022-12-19T01:20:29.705Z,30.57
2022-12-19T01:22:56.991Z,32.30
2022-12-19T01:25:25.226Z,31.07
2022-12-19T01:27:54.423Z,30.93
2022-12-19T01:30:20.775Z,31.10
2022-12-19T01:32:47.674Z,29.73
2022-12-19T01:35:21.327Z,33.17
2022-12-19T01:37:50.237Z,30.70
2022-12-19T01:40:16.683Z,31.30
2022-12-19T01:42:43.024Z,31.43
2022-12-19T01:45:12.312Z,31.97
2022-12-19T01:47:49.487Z,33.17
2022-12-19T01:50:32.483Z,32.27
2022-12-19T01:52:59.805Z,32.00
2022-12-19T01:55:26.566Z,33.33
2022-12-19T01:57:55.242Z,33.50
2022-12-19T02:00:21.784Z,32.07
2022-12-19T02:02:57.516Z,33.20
2022-12-19T02:05:24.059Z,31.67
2022-12-19T02:07:51.557Z,32.07
2022-12-19T02:10:18.017Z,31.70
2022-12-19T02:12:45.609Z,32.50
2022-12-19T02:15:14.455Z,34.60
2022-12-19T02:17:52.971Z,29.90
2022-12-19T02:20:34.637Z,30.20
2022-12-19T02:23:27.923Z,32.63
2022-12-19T02:26:04.006Z,30.80
2022-12-19T02:28:51.036Z,31.37
2022-12-19T02:31:35.086Z,32.77
2022-12-19T02:34:14.489Z,31.90
2022-12-19T02:36:54.049Z,32.83
2022-12-19T02:39:21.380Z,31.70
2022-12-19T02:41:54.833Z,32.43
2022-12-19T02:44:29.173Z,31.33
2022-12-19T02:46:56.658Z,31.70
2022-12-19T02:49:31.152Z,32.77
2022-12-19T02:51:58.224Z,32.07
2022-12-19T02:54:25.338Z,28.70
2022-12-19T02:57:03.029Z,28.30
2022-12-19T02:59:35.519Z,31.30
2022-12-19T03:02:10.742Z,33.70
2022-12-19T03:04:59.641Z,32.30
2022-12-19T03:07:32.218Z,32.63
2022-12-19T03:10:22.915Z,31.80
2022-12-19T03:13:12.678Z,30.03
2022-12-19T03:15:40.832Z,31.97
2022-12-19T03:18:08.242Z,31.50
2022-12-19T03:20:54.730Z,34.17
2022-12-19T03:23:21.559Z,30.17
2022-12-19T03:25:52.034Z,33.47
2022-12-19T03:28:34.192Z,34.23
2022-12-19T03:31:02.792Z,29.93
2022-12-19T03:33:31.952Z,29.93
2022-12-19T03:36:03.819Z,30.00
2022-12-19T03:38:32.779Z,31.40
2022-12-19T03:41:01.179Z,33.80
2022-12-19T03:43:29.822Z,31.10
2022-12-19T03:46:11.519Z,32.50
2022-12-19T03:48:51.181Z,31.87
2022-12-19T03:51:39.315Z,34.00
2022-12-19T03:54:18.293Z,30.57
2022-12-19T03:56:57.967Z,30.53
2022-12-19T03:59:43.872Z,35.13
2022-12-19T04:02:13.175Z,33.90
2022-12-19T04:04:42.345Z,33.03
2022-12-19T04:07:09.626Z,33.20
2022-12-19T04:09:37.580Z,32.30
2022-12-19T04:12:08.680Z,33.03
2022-12-19T04:14:38.033Z,31.27
2022-12-19T04:17:24.611Z,32.30
2022-12-19T04:20:05.649Z,31.80
2022-12-19T04:23:11.645Z,32.90
2022-12-19T04:25:46.393Z,33.50
2022-12-19T04:28:18.336Z,30.80
2022-12-19T04:30:46.691Z,32.60
2022-12-19T04:33:13.088Z,32.07
2022-12-19T04:35:39.601Z,31.67
2022-12-19T04:38:06.598Z,33.27
2022-12-19T04:40:40.827Z,34.60
2022-12-19T04:43:08.471Z,34.60
2022-12-19T04:45:35.166Z,31.77
2022-12-19T04:48:02.541Z,33.80
2022-12-19T04:50:28.954Z,33.70
2022-12-19T04:52:57.162Z,34.17
2022-12-19T04:55:23.755Z,37.37
2022-12-19T04:57:50.095Z,34.07
2022-12-19T05:00:16.891Z,36.60
2022-12-19T05:02:43.574Z,33.33
2022-12-19T05:05:10.233Z,33.23
2022-12-19T05:07:36.593Z,34.50
2022-12-19T05:10:03.884Z,38.58
2022-12-19T05:12:30.247Z,35.10
2022-12-19T05:14:56.602Z,35.10
2022-12-19T05:17:22.980Z,33.43
2022-12-19T05:19:49.356Z,33.67
2022-12-19T05:22:15.907Z,32.80
2022-12-19T05:24:42.242Z,35.20
2022-12-19T05:27:08.625Z,32.10
2022-12-19T05:29:34.982Z,36.30
2022-12-19T05:32:01.484Z,34.53
2022-12-19T05:34:27.982Z,32.47
2022-12-19T05:36:54.784Z,34.00
2022-12-19T05:39:21.137Z,33.70
2022-12-19T05:41:49.151Z,32.03
2022-12-19T05:44:16.134Z,33.17
2022-12-19T05:46:42.592Z,33.90
2022-12-19T05:49:08.976Z,30.93
2022-12-19T05:51:35.537Z,32.97
2022-12-19T05:54:02.027Z,31.63
2022-12-19T05:56:28.376Z,35.03
2022-12-19T05:58:54.791Z,32.57
2022-12-19T06:01:24.432Z,33.80
2022-12-19T06:03:51.372Z,33.13
2022-12-19T06:06:20.542Z,31.33
2022-12-19T06:08:47.558Z,33.20
2022-12-19T06:11:14.608Z,33.20
2022-12-19T06:13:41.504Z,32.77
2022-12-19T06:16:12.731Z,32.97
2022-12-19T06:18:44.539Z,32.43
2022-12-19T06:21:23.009Z,33.37
2022-12-19T06:23:49.441Z,33.40
2022-12-19T06:26:19.945Z,35.40
2022-12-19T06:28:48.454Z,30.83
2022-12-19T06:31:14.967Z,32.77
2022-12-19T06:33:41.465Z,31.27
2022-12-19T06:36:18.578Z,34.27
2022-12-19T06:38:44.926Z,34.53
2022-12-19T06:41:34.623Z,33.50
2022-12-19T06:44:02.186Z,33.50
2022-12-19T06:46:29.088Z,33.27
2022-12-19T06:48:55.692Z,35.63
2022-12-19T06:51:22.513Z,33.90
2022-12-19T06:53:49.673Z,31.83
2022-12-19T06:56:17.268Z,34.60
2022-12-19T06:58:43.847Z,33.93
2022-12-19T07:01:36.571Z,33.20
2022-12-19T07:04:03.215Z,34.23
2022-12-19T07:06:29.556Z,31.60
2022-12-19T07:08:56.111Z,33.50
2022-12-19T07:11:22.448Z,33.43
2022-12-19T07:13:48.785Z,32.80
2022-12-19T07:16:15.240Z,32.17
2022-12-19T07:18:41.999Z,33.83
2022-12-19T07:21:11.170Z,32.47
2022-12-19T07:23:38.297Z,33.27
2022-12-19T07:26:04.808Z,31.93
2022-12-19T07:28:34.415Z,32.90
2022-12-19T07:31:01.149Z,33.00
2022-12-19T07:33:28.712Z,34.77
2022-12-19T07:35:55.064Z,34.53
2022-12-19T07:38:21.588Z,33.83
2022-12-19T07:40:47.925Z,33.87
2022-12-19T07:43:14.290Z,30.83
2022-12-19T07:45:40.738Z,34.80
2022-12-19T07:48:07.562Z,37.73
2022-12-19T07:50:34.564Z,35.03
2022-12-19T07:53:01.344Z,36.50
2022-12-19T07:55:28.072Z,34.77
2022-12-19T07:57:55.530Z,34.20
2022-12-19T08:00:22.599Z,34.23
2022-12-19T08:02:49.327Z,33.30
2022-12-19T08:05:15.996Z,34.57
2022-12-19T08:07:42.550Z,37.20
2022-12-19T08:10:11.256Z,33.47
2022-12-19T08:12:38.095Z,33.63
2022-12-19T08:15:05.777Z,38.33
2022-12-19T08:17:32.375Z,35.27
2022-12-19T08:19:58.792Z,33.23
2022-12-19T08:22:25.129Z,36.43
2022-12-19T08:24:51.539Z,38.20
2022-12-19T08:27:17.933Z,34.47
2022-12-19T08:29:44.509Z,33.43
2022-12-19T08:32:13.342Z,34.67
2022-12-19T08:34:43.699Z,33.93
2022-12-19T08:37:10.987Z,35.00
2022-12-19T08:39:37.443Z,36.07
2022-12-19T08:42:03.861Z,34.00
2022-12-19T08:44:30.201Z,35.13
2022-12-19T08:46:56.601Z,34.13
2022-12-19T08:49:22.925Z,34.90
2022-12-19T08:51:49.660Z,35.37
2022-12-19T08:54:16.018Z,37.80
2022-12-19T08:56:45.973Z,36.17
2022-12-19T08:59:13.323Z,34.77
2022-12-19T09:01:41.469Z,33.73
2022-12-19T09:05:57.709Z,36.40
2022-12-19T09:06:54.442Z,35.53
2022-12-19T09:09:20.821Z,35.13
2022-12-19T09:11:47.651Z,36.47
2022-12-19T09:14:15.076Z,35.27
2022-12-19T09:16:47.250Z,35.10
2022-12-19T09:19:16.195Z,36.47
2022-12-19T09:21:42.721Z,36.23
2022-12-19T09:24:10.031Z,34.10
2022-12-19T09:26:41.950Z,33.80
2022-12-19T09:29:12.611Z,37.97
2022-12-19T09:31:46.786Z,37.63
2022-12-19T09:34:13.114Z,37.00
2022-12-19T09:36:39.474Z,37.30
2022-12-19T09:39:05.801Z,39.00
2022-12-19T09:41:53.868Z,37.27
2022-12-19T09:44:42.213Z,36.90
2022-12-19T09:47:28.545Z,36.80
2022-12-19T09:49:55.261Z,35.53
2022-12-19T09:52:25.540Z,37.40
2022-12-19T09:54:58.906Z,37.50
2022-12-19T09:57:44.203Z,37.17
2022-12-19T10:00:22.164Z,37.30
2022-12-19T10:03:14.152Z,38.30
2022-12-19T10:07:11.127Z,38.23
2022-12-19T10:10:32.907Z,37.57
2022-12-19T10:12:52.979Z,37.17
2022-12-19T10:15:35.680Z,40.03
2022-12-19T10:18:22.545Z,36.83
2022-12-19T10:21:03.025Z,37.60
2022-12-19T10:24:02.139Z,38.10
2022-12-19T10:26:52.599Z,36.20
2022-12-19T10:29:42.470Z,38.37
2022-12-19T10:32:40.761Z,38.17
2022-12-19T10:35:40.620Z,39.70
2022-12-19T10:38:28.546Z,36.60
2022-12-19T10:41:24.021Z,36.50
2022-12-19T10:44:10.109Z,36.73
2022-12-19T10:46:50.016Z,35.40
2022-12-19T10:49:22.069Z,38.07
2022-12-19T10:52:03.889Z,36.73
2022-12-19T10:54:43.583Z,35.80
2022-12-19T10:57:22.152Z,38.80
2022-12-19T11:00:00.373Z,36.00
2022-12-19T11:02:48.428Z,39.17
2022-12-19T11:05:27.929Z,37.77
2022-12-19T11:08:06.615Z,37.20
2022-12-19T11:11:30.825Z,37.93
2022-12-19T11:19:23.235Z,36.07
2022-12-19T11:21:16.803Z,39.67
2022-12-19T11:29:18.576Z,38.57
2022-12-19T11:29:30.355Z,36.00
2022-12-19T11:29:34.915Z,37.20
2022-12-19T11:29:38.253Z,38.80
2022-12-19T11:34:19.358Z,38.10
2022-12-19T11:36:55.776Z,39.87
2022-12-19T11:39:33.637Z,37.30
2022-12-19T11:42:15.359Z,37.37
2022-12-19T11:44:53.077Z,35.53
2022-12-19T11:47:26.010Z,37.30
2022-12-19T11:50:01.429Z,38.80
2022-12-19T11:53:03.579Z,37.27
2022-12-19T11:55:42.158Z,37.50
2022-12-19T11:58:12.687Z,36.83
2022-12-19T12:00:48.991Z,40.63
2022-12-19T12:03:35.566Z,38.63
2022-12-19T12:06:11.681Z,38.93
2022-12-19T12:12:17.359Z,36.30
2022-12-19T12:26:42.540Z,35.07
2022-12-19T12:30:32.220Z,35.60
2022-12-19T12:31:17.245Z,36.93
2022-12-19T12:31:46.435Z,36.07
2022-12-19T12:32:02.743Z,38.67
2022-12-19T12:32:04.669Z,36.67
2022-12-19T12:35:38.458Z,39.07
2022-12-19T12:38:26.511Z,36.33
2022-12-19T12:40:59.755Z,34.70
2022-12-19T12:43:41.502Z,38.50
2022-12-19T12:46:14.499Z,36.47
2022-12-19T12:48:59.517Z,37.63
2022-12-19T12:51:26.913Z,40.77
2022-12-19T12:54:07.507Z,36.40
2022-12-19T12:56:35.837Z,38.73
2022-12-19T12:59:06.231Z,37.60
2022-12-19T13:01:39.189Z,37.43
2022-12-19T13:04:07.477Z,36.57
2022-12-19T13:06:36.842Z,37.70
2022-12-19T13:09:08.186Z,38.00
2022-12-19T13:12:05.611Z,39.00
2022-12-19T13:14:34.936Z,38.40
2022-12-19T13:17:03.563Z,38.37
2022-12-19T13:19:35.604Z,38.00
2022-12-19T13:22:05.050Z,38.97
2022-12-19T13:24:47.124Z,38.37
2022-12-19T13:27:19.624Z,35.20
2022-12-19T13:30:01.582Z,35.97
2022-12-19T13:32:53.404Z,37.80
2022-12-19T13:35:48.715Z,36.00
2022-12-19T13:40:01.895Z,36.60
2022-12-19T13:41:55.878Z,34.00
2022-12-19T13:44:22.435Z,34.43
2022-12-19T13:46:49.494Z,35.13
2022-12-19T13:49:31.630Z,34.20
2022-12-19T13:52:03.020Z,34.27
2022-12-19T13:54:34.431Z,36.27
2022-12-19T13:57:08.167Z,35.50
2022-12-19T13:59:38.808Z,36.10
2022-12-19T14:02:22.921Z,36.70
2022-12-19T14:04:49.706Z,35.47
2022-12-19T14:07:36.655Z,37.00
2022-12-19T14:11:27.404Z,36.90
2022-12-19T14:13:50.132Z,38.13
2022-12-19T14:16:43.837Z,36.77
2022-12-19T14:19:28.774Z,36.67
2022-12-19T14:22:15.790Z,37.23
2022-12-19T14:27:08.315Z,38.60
2022-12-19T14:28:26.981Z,38.67
2022-12-19T14:30:53.585Z,37.53
2022-12-19T14:33:44.255Z,34.17
2022-12-19T14:36:26.810Z,37.63
2022-12-19T14:39:19.919Z,35.47
2022-12-19T14:42:03.825Z,38.27
2022-12-19T14:51:42.914Z,33.57
2022-12-19T14:53:34.157Z,36.67
2022-12-19T14:54:07.108Z,36.37
2022-12-19T14:54:31.521Z,36.43
2022-12-19T14:56:53.915Z,35.40
2022-12-19T14:59:22.523Z,35.90
2022-12-19T15:01:54.681Z,36.53
2022-12-19T15:04:51.843Z,37.70
2022-12-19T15:07:22.094Z,37.27
2022-12-19T15:11:08.833Z,38.03
2022-12-19T15:14:52.223Z,38.67
2022-12-19T15:16:28.345Z,38.27
2022-12-19T15:19:00.230Z,36.50
2022-12-19T15:21:28.583Z,40.47
2022-12-19T15:23:54.979Z,37.10
2022-12-19T15:26:32.908Z,40.07
2022-12-19T15:28:59.701Z,37.57
2022-12-19T15:31:40.996Z,36.50
2022-12-19T15:36:57.798Z,39.10
2022-12-19T15:39:24.954Z,36.67
2022-12-19T15:41:53.486Z,35.00
2022-12-19T15:44:32.152Z,36.03
2022-12-19T15:47:00.275Z,38.43
2022-12-19T15:49:26.765Z,38.77
2022-12-19T15:51:53.409Z,39.70
2022-12-19T15:54:47.781Z,37.00
2022-12-19T15:57:09.214Z,37.47
2022-12-19T15:59:38.803Z,38.70
2022-12-19T16:02:17.643Z,39.57
2022-12-19T16:04:46.065Z,37.33
2022-12-19T16:07:23.584Z,36.70
2022-12-19T16:09:50.006Z,37.33
2022-12-19T16:12:20.552Z,40.07
2022-12-19T16:14:53.110Z,36.97
2022-12-19T16:17:22.372Z,36.43
2022-12-19T16:19:49.818Z,38.50
2022-12-19T16:22:22.262Z,39.33
2022-12-19T16:24:50.155Z,37.57
2022-12-19T16:27:31.422Z,39.50
2022-12-19T16:30:07.165Z,36.90
2022-12-19T16:32:33.585Z,37.60
2022-12-19T16:35:02.299Z,37.80
2022-12-19T16:37:32.234Z,37.10
2022-12-19T16:39:59.128Z,35.77
2022-12-19T16:42:25.559Z,38.73
2022-12-19T16:44:51.920Z,38.40
2022-12-19T16:47:18.607Z,36.77
2022-12-19T16:49:45.563Z,38.23
2022-12-19T16:52:12.337Z,37.83
2022-12-19T16:54:38.814Z,37.50
2022-12-19T16:57:15.864Z,36.27
2022-12-19T16:59:42.350Z,35.90
2022-12-19T17:02:31.338Z,37.77
2022-12-19T17:04:57.788Z,39.33
2022-12-19T17:07:24.270Z,39.43
2022-12-19T17:09:50.833Z,40.57
2022-12-19T17:12:18.329Z,40.10
2022-12-19T17:14:44.923Z,38.77
2022-12-19T17:17:15.722Z,41.30
2022-12-19T17:19:45.331Z,36.73
2022-12-19T17:22:14.242Z,37.40
2022-12-19T17:24:41.094Z,36.90
2022-12-19T17:27:07.867Z,40.30
2022-12-19T17:29:34.380Z,39.83
2022-12-19T17:32:01.037Z,38.33
2022-12-19T17:34:33.274Z,37.73
2022-12-19T17:37:01.080Z,41.87
2022-12-19T17:39:30.215Z,40.27
2022-12-19T17:42:12.355Z,38.17
2022-12-19T17:44:38.853Z,38.83
2022-12-19T17:47:05.387Z,36.67
2022-12-19T17:49:32.534Z,37.60
2022-12-19T17:51:59.929Z,39.97
2022-12-19T17:54:26.604Z,42.07
2022-12-19T17:56:53.431Z,41.17
2022-12-19T17:59:19.987Z,38.90
2022-12-19T18:01:47.153Z,40.30
2022-12-19T18:04:17.047Z,38.40
2022-12-19T18:06:43.689Z,39.37
2022-12-19T18:09:21.261Z,40.60
2022-12-19T18:11:48.789Z,37.20
2022-12-19T18:14:16.238Z,37.67
2022-12-19T18:16:43.720Z,37.57
2022-12-19T18:19:23.045Z,38.63
2022-12-19T18:21:49.520Z,40.60
2022-12-19T18:24:16.511Z,38.20
2022-12-19T18:26:44.608Z,38.40
2022-12-19T18:29:11.318Z,37.10
2022-12-19T18:31:38.852Z,39.00
2022-12-19T18:34:08.234Z,38.80
2022-12-19T18:36:40.159Z,37.97
2022-12-19T18:39:19.046Z,38.93
2022-12-19T18:41:45.430Z,39.00
2022-12-19T18:44:11.775Z,38.87
2022-12-19T18:46:38.662Z,36.60
2022-12-19T18:49:06.402Z,37.87
2022-12-19T18:51:33.009Z,38.53
2022-12-19T18:53:59.965Z,36.07
2022-12-19T18:56:26.534Z,39.60
2022-12-19T18:58:52.867Z,37.00
2022-12-19T19:01:21.509Z,39.57
2022-12-19T19:03:56.704Z,41.10
2022-12-19T19:06:27.395Z,39.77
2022-12-19T19:08:56.408Z,38.63
2022-12-19T19:11:23.867Z,38.10
2022-12-19T19:13:51.334Z,38.33
2022-12-19T19:16:26.809Z,40.27
2022-12-19T19:18:55.160Z,39.03
2022-12-19T19:21:26.525Z,41.10
2022-12-19T19:24:01.328Z,40.83
2022-12-19T19:26:28.005Z,40.87
2022-12-19T19:28:54.364Z,40.60
2022-12-19T19:31:24.562Z,39.77
2022-12-19T19:33:59.535Z,38.57
2022-12-19T19:36:30.571Z,40.00
2022-12-19T19:38:57.802Z,39.13
2022-12-19T19:41:29.433Z,36.63
2022-12-19T19:43:57.092Z,38.70
2022-12-19T19:46:23.471Z,40.77
2022-12-19T19:48:49.930Z,37.17
2022-12-19T19:51:17.089Z,40.37
2022-12-19T19:53:43.668Z,40.60
2022-12-19T19:56:10.999Z,38.90
2022-12-19T19:58:37.521Z,40.23
2022-12-19T20:01:09.150Z,40.80
2022-12-19T20:03:35.758Z,38.30
2022-12-19T20:06:02.848Z,37.30
2022-12-19T20:08:38.633Z,39.27
2022-12-19T20:11:06.501Z,39.20
2022-12-19T20:13:33.758Z,41.23
2022-12-19T20:16:12.680Z,39.57
2022-12-19T20:18:40.169Z,39.77
2022-12-19T20:21:13.526Z,39.87
2022-12-19T20:23:42.393Z,38.10
2022-12-19T20:26:09.615Z,39.23
2022-12-19T20:28:37.840Z,42.20
2022-12-19T20:31:07.696Z,42.10
2022-12-19T20:33:34.087Z,38.70
2022-12-19T20:36:09.665Z,39.17
2022-12-19T20:38:36.373Z,39.17
2022-12-19T20:41:03.090Z,37.43
2022-12-19T20:43:29.870Z,39.67
2022-12-19T20:46:22.709Z,38.13
2022-12-19T20:48:50.311Z,36.20
2022-12-19T20:51:19.479Z,39.00
2022-12-19T20:53:46.616Z,37.33
2022-12-19T20:56:16.520Z,35.13
2022-12-19T20:58:43.623Z,40.00
2022-12-19T21:01:11.253Z,38.47
2022-12-19T21:03:39.545Z,36.43
2022-12-19T21:06:07.310Z,38.63
2022-12-19T21:08:34.917Z,39.83
2022-12-19T21:11:02.531Z,39.07
2022-12-19T21:13:29.422Z,34.97
2022-12-19T21:15:58.867Z,34.00
2022-12-19T21:18:26.642Z,35.10
2022-12-19T21:20:53.770Z,36.10
2022-12-19T21:23:21.468Z,38.40
2022-12-19T21:25:48.309Z,36.50
2022-12-19T21:28:15.612Z,36.43
2022-12-19T21:30:42.297Z,38.57
2022-12-19T21:33:09.475Z,37.10
2022-12-19T21:35:37.972Z,38.13
2022-12-19T21:38:04.833Z,38.67
2022-12-19T21:40:31.521Z,36.50
2022-12-19T21:42:58.033Z,37.40
2022-12-19T21:45:24.418Z,38.47
2022-12-19T21:47:50.801Z,37.50
2022-12-19T21:50:17.284Z,37.17
2022-12-19T21:52:43.638Z,37.50
2022-12-19T21:55:10.122Z,38.70
2022-12-19T21:57:41.048Z,38.37
2022-12-19T22:00:10.279Z,39.27
2022-12-19T22:02:37.448Z,35.73
2022-12-19T22:05:04.339Z,36.23
2022-12-19T22:07:30.870Z,37.20
2022-12-19T22:09:57.278Z,37.60
2022-12-19T22:12:23.747Z,38.33
2022-12-19T22:14:52.203Z,36.90
2022-12-19T22:17:18.742Z,35.20
2022-12-19T22:19:45.316Z,38.80
2022-12-19T22:22:11.860Z,40.23
2022-12-19T22:24:38.313Z,36.40
2022-12-19T22:27:05.025Z,37.50
2022-12-19T22:29:36.158Z,37.77
2022-12-19T22:32:03.707Z,37.87
2022-12-19T22:34:30.306Z,38.10
2022-12-19T22:36:56.754Z,39.30
2022-12-19T22:39:23.231Z,36.80
2022-12-19T22:41:49.714Z,38.00
2022-12-19T22:44:22.730Z,36.70
2022-12-19T22:46:50.059Z,34.50
2022-12-19T22:49:16.510Z,36.43
2022-12-19T22:51:44.091Z,38.90
2022-12-19T22:54:11.344Z,38.70
2022-12-19T22:56:37.846Z,38.37
2022-12-19T22:59:07.186Z,39.30
2022-12-19T23:01:37.412Z,38.20
2022-12-19T23:04:05.155Z,38.27
2022-12-19T23:06:33.594Z,37.97
2022-12-19T23:09:00.802Z,36.33
2022-12-19T23:11:31.407Z,36.87
2022-12-19T23:13:58.567Z,37.30
2022-12-19T23:16:25.070Z,34.80
2022-12-19T23:18:51.615Z,37.47
2022-12-19T23:21:21.753Z,36.97
2022-12-19T23:23:50.146Z,37.10
2022-12-19T23:26:22.285Z,36.30
2022-12-19T23:28:54.723Z,38.97
2022-12-19T23:31:21.575Z,42.80
2022-12-19T23:33:48.052Z,37.77
2022-12-19T23:36:14.685Z,38.40
2022-12-19T23:38:43.405Z,37.77
2022-12-19T23:41:12.835Z,39.13
2022-12-19T23:43:40.477Z,37.43
2022-12-19T23:46:18.328Z,36.13
2022-12-19T23:48:45.245Z,35.23
2022-12-19T23:51:14.868Z,37.50
2022-12-19T23:53:42.004Z,38.00
2022-12-19T23:56:14.098Z,39.40
2022-12-19T23:58:40.577Z,38.20
